createdAt,value
2023-04-10T00:00:58.323Z,101543.14
2023-04-10T00:04:34.176Z,101537.90
2023-04-10T00:08:01.234Z,101536.52
2023-04-10T00:11:15.182Z,101535.30
2023-04-10T00:14:52.847Z,101534.96
2023-04-10T00:18:05.532Z,101536.20
2023-04-10T00:21:34.643Z,101531.17
2023-04-10T00:24:48.852Z,101528.05
2023-04-10T00:28:18.744Z,101530.66
2023-04-10T00:31:34.467Z,101531.88
2023-04-10T00:35:07.544Z,101531.55
2023-04-10T00:38:18.934Z,101528.42
2023-04-10T00:41:51.926Z,101527.70
2023-04-10T00:45:18.986Z,101523.70
2023-04-10T00:48:47.462Z,101520.45
2023-04-10T00:52:19.434Z,101514.39
2023-04-10T00:55:35.221Z,101519.09
2023-04-10T00:59:07.756Z,101514.77
2023-04-10T01:02:21.624Z,101517.25
2023-04-10T01:05:50.737Z,101518.13
2023-04-10T01:09:40.215Z,101516.38
2023-04-10T01:13:41.471Z,101512.19
2023-04-10T01:17:02.761Z,101509.77
2023-04-10T01:20:43.767Z,101509.77
2023-04-10T01:50:09.340Z,101498.58
2023-04-10T01:53:28.608Z,101498.09
2023-04-10T01:56:47.158Z,101503.50
2023-04-10T01:59:58.239Z,101509.07
2023-04-10T02:03:16.533Z,101507.00
2023-04-10T02:07:03.817Z,101505.09
2023-04-10T02:10:39.261Z,101504.04
2023-04-10T02:14:00.170Z,101503.02
2023-04-10T02:24:17.025Z,101505.50
2023-04-10T02:27:20.011Z,101505.52
2023-04-10T02:30:44.400Z,101513.54
2023-04-10T02:34:11.146Z,101517.72
2023-04-10T02:37:39.228Z,101518.60
2023-04-10T02:44:25.353Z,101523.67
2023-04-10T02:47:39.842Z,101523.33
2023-04-10T02:51:05.523Z,101530.46
2023-04-10T02:54:43.953Z,101528.91
2023-04-10T02:57:55.020Z,101530.50
2023-04-10T03:01:14.078Z,101535.17
2023-04-10T03:04:30.445Z,101537.94
2023-04-10T03:07:42.680Z,101538.95
2023-04-10T03:11:01.235Z,101541.02
2023-04-10T03:14:38.951Z,101541.19
2023-04-10T03:18:17.663Z,101538.23
2023-04-10T03:21:48.409Z,101538.41
2023-04-10T03:25:37.606Z,101533.05
2023-04-10T03:29:13.020Z,101532.88
2023-04-10T03:32:42.547Z,101529.23
2023-04-10T03:36:07.598Z,101524.55
2023-04-10T03:39:39.710Z,101526.81
2023-04-10T03:43:15.779Z,101525.94
2023-04-10T03:46:30.662Z,101529.23
2023-04-10T03:50:19.858Z,101527.84
2023-04-10T03:53:46.036Z,101530.62
2023-04-10T03:57:19.648Z,101531.30
2023-04-10T04:00:44.059Z,101537.02
2023-04-10T04:04:28.406Z,101537.02
2023-04-10T04:08:14.189Z,101537.88
2023-04-10T04:11:42.767Z,101540.66
2023-04-10T04:15:11.608Z,101543.95
2023-04-10T04:19:03.008Z,101545.86
2023-04-10T04:22:51.673Z,101550.20
2023-04-10T04:26:49.728Z,101554.72
2023-04-10T04:30:41.249Z,101554.56
2023-04-10T04:34:37.892Z,101554.73
2023-04-10T04:38:37.608Z,101564.27
2023-04-10T04:42:09.681Z,101563.91
2023-04-10T04:45:51.905Z,101568.23
2023-04-10T04:49:26.519Z,101565.65
2023-04-10T04:56:55.751Z,101572.94
2023-04-10T05:07:44.256Z,101576.46
2023-04-10T05:10:59.226Z,101582.02
2023-04-10T05:14:05.882Z,101587.40
2023-04-10T05:17:20.256Z,101590.70
2023-04-10T05:20:27.537Z,101591.92
2023-04-10T05:23:28.473Z,101592.09
2023-04-10T05:26:30.326Z,101592.09
2023-04-10T05:29:50.620Z,101595.39
2023-04-10T05:33:12.564Z,101598.15
2023-04-10T05:36:29.266Z,101600.58
2023-04-10T05:39:44.337Z,101597.63
2023-04-10T05:42:42.106Z,101594.14
2023-04-10T05:45:35.975Z,101593.27
2023-04-10T05:48:55.134Z,101592.89
2023-04-10T05:51:59.666Z,101590.95
2023-04-10T05:55:05.732Z,101589.55
2023-04-10T05:58:14.362Z,101589.88
2023-04-10T06:01:10.988Z,101587.41
2023-04-10T06:04:10.436Z,101584.43
2023-04-10T06:07:05.393Z,101583.35
2023-04-10T06:09:59.689Z,101582.11
2023-04-10T06:12:57.578Z,101586.41
2023-04-10T06:15:36.887Z,101589.64
2023-04-10T06:18:17.540Z,101585.58
2023-04-10T06:21:09.444Z,101585.53
2023-04-10T06:23:52.579Z,101585.47
2023-04-10T06:26:30.875Z,101585.40
2023-04-10T06:29:14.334Z,101595.44
2023-04-10T06:31:55.247Z,101604.43
2023-04-10T06:34:55.020Z,101607.87
2023-04-10T06:37:50.044Z,101611.80
2023-04-10T06:40:29.555Z,101611.71
2023-04-10T06:43:06.540Z,101614.98
2023-04-10T06:45:42.724Z,101614.88
2023-04-10T06:48:31.452Z,101617.05
2023-04-10T06:51:29.013Z,101614.34
2023-04-10T06:54:09.218Z,101611.84
2023-04-10T06:56:45.335Z,101611.77
2023-04-10T06:59:23.022Z,101610.28
2023-04-10T07:02:00.186Z,101613.32
2023-04-10T07:04:46.679Z,101613.03
2023-04-10T07:07:23.275Z,101610.73
2023-04-10T07:09:59.964Z,101614.62
2023-04-10T07:12:31.400Z,101620.07
2023-04-10T07:15:09.142Z,101623.06
2023-04-10T07:17:43.048Z,101627.25
2023-04-10T07:20:14.463Z,101627.57
2023-04-10T07:22:52.040Z,101624.83
2023-04-10T07:25:22.164Z,101623.03
2023-04-10T07:27:53.708Z,101622.13
2023-04-10T07:30:25.900Z,101619.44
2023-04-10T07:33:00.726Z,101617.74
2023-04-10T07:35:37.613Z,101617.86
2023-04-10T07:38:24.285Z,101617.23
2023-04-10T07:41:26.868Z,101615.73
2023-04-10T07:44:14.606Z,101614.77
2023-04-10T07:46:52.603Z,101611.05
2023-04-10T07:49:43.811Z,101605.36
2023-04-10T07:52:32.463Z,101605.09
2023-04-10T07:55:15.587Z,101605.75
2023-04-10T07:58:07.534Z,101600.36
2023-04-10T08:00:51.659Z,101599.71
2023-04-10T08:03:41.024Z,101596.63
2023-04-10T08:06:29.682Z,101598.00
2023-04-10T08:09:20.690Z,101601.83
2023-04-10T08:12:02.998Z,101606.95
2023-04-10T08:14:52.260Z,101606.52
2023-04-10T08:17:28.260Z,101599.61
2023-04-10T08:20:08.573Z,101589.83
2023-04-10T08:22:45.445Z,101587.89
2023-04-10T08:25:22.327Z,101588.59
2023-04-10T08:27:59.407Z,101594.14
2023-04-10T08:30:48.548Z,101591.54
2023-04-10T08:33:43.260Z,101588.77
2023-04-10T08:36:22.902Z,101589.84
2023-04-10T08:39:16.778Z,101583.41
2023-04-10T08:41:53.044Z,101586.38
2023-04-10T08:44:46.109Z,101581.75
2023-04-10T08:47:39.065Z,101584.94
2023-04-10T08:50:24.333Z,101584.46
2023-04-10T08:53:14.922Z,101584.08
2023-04-10T08:55:46.470Z,101580.82
2023-04-10T08:58:34.303Z,101580.14
2023-04-10T09:01:12.441Z,101577.75
2023-04-10T09:03:49.328Z,101576.02
2023-04-10T09:06:30.874Z,101575.55
2023-04-10T09:09:18.805Z,101569.31
2023-04-10T09:12:04.443Z,101567.73
2023-04-10T09:14:41.787Z,101568.45
2023-04-10T09:17:31.338Z,101568.07
2023-04-10T09:20:05.558Z,101564.19
2023-04-10T09:22:49.295Z,101554.45
2023-04-10T09:25:39.273Z,101552.64
2023-04-10T09:28:13.185Z,101549.83
2023-04-10T09:30:49.348Z,101546.56
2023-04-10T09:33:28.270Z,101551.16
2023-04-10T09:36:04.409Z,101547.02
2023-04-10T09:38:38.844Z,101543.30
2023-04-10T09:41:11.018Z,101545.20
2023-04-10T09:43:46.559Z,101540.85
2023-04-10T09:46:26.976Z,101536.32
2023-04-10T09:49:00.002Z,101540.22
2023-04-10T09:51:32.474Z,101535.95
2023-04-10T09:54:04.440Z,101532.30
2023-04-10T09:56:37.215Z,101528.13
2023-04-10T09:59:08.767Z,101525.23
2023-04-10T10:01:40.115Z,101518.04
2023-04-10T10:04:15.915Z,101515.55
2023-04-10T10:06:45.368Z,101509.89
2023-04-10T10:09:16.715Z,101504.17
2023-04-10T10:11:52.873Z,101499.70
2023-04-10T10:14:22.582Z,101493.48
2023-04-10T10:16:51.467Z,101494.02
2023-04-10T10:19:27.463Z,101491.61
2023-04-10T10:21:55.865Z,101487.38
2023-04-10T10:24:24.190Z,101482.53
2023-04-10T10:26:52.376Z,101480.10
2023-04-10T10:29:21.352Z,101474.06
2023-04-10T10:31:49.863Z,101475.74
2023-04-10T10:34:18.552Z,101473.59
2023-04-10T10:36:46.916Z,101475.86
2023-04-10T10:39:53.468Z,101474.70
2023-04-10T10:42:42.014Z,101472.34
2023-04-10T10:45:13.888Z,101474.23
2023-04-10T10:47:49.575Z,101469.02
2023-04-10T10:50:18.409Z,101470.52
2023-04-10T10:52:53.134Z,101466.52
2023-04-10T10:55:40.160Z,101461.64
2023-04-10T10:58:09.957Z,101454.71
2023-04-10T11:00:50.995Z,101453.33
2023-04-10T11:03:19.588Z,101451.60
2023-04-10T11:05:52.600Z,101448.13
2023-04-10T11:08:49.968Z,101444.30
2023-04-10T11:11:25.809Z,101448.48
2023-04-10T11:13:56.465Z,101445.29
2023-04-10T11:16:32.019Z,101440.80
2023-04-10T11:19:14.038Z,101431.02
2023-04-10T11:21:59.766Z,101430.56
2023-04-10T11:24:28.674Z,101427.20
2023-04-10T11:26:57.136Z,101421.90
2023-04-10T11:29:28.168Z,101422.86
2023-04-10T11:31:58.293Z,101419.53
2023-04-10T11:34:27.795Z,101419.42
2023-04-10T11:36:56.384Z,101416.61
2023-04-10T11:39:26.693Z,101413.20
2023-04-10T11:41:57.861Z,101404.89
2023-04-10T11:44:25.949Z,101404.13
2023-04-10T11:46:54.384Z,101399.88
2023-04-10T11:49:29.736Z,101399.48
2023-04-10T11:51:57.995Z,101393.73
2023-04-10T11:54:28.334Z,101394.67
2023-04-10T11:57:09.529Z,101389.70
2023-04-10T11:59:37.978Z,101392.23
2023-04-10T12:02:09.373Z,101388.54
2023-04-10T12:04:38.488Z,101384.23
2023-04-10T12:07:06.808Z,101379.04
2023-04-10T12:09:34.964Z,101375.70
2023-04-10T12:12:05.461Z,101371.55
2023-04-10T12:14:34.487Z,101368.42
2023-04-10T12:17:04.128Z,101358.45
2023-04-10T12:19:32.158Z,101356.44
2023-04-10T12:22:03.073Z,101350.21
2023-04-10T12:24:41.206Z,101347.17
2023-04-10T12:27:22.493Z,101343.82
2023-04-10T12:29:52.529Z,101335.36
2023-04-10T12:32:21.485Z,101334.48
2023-04-10T12:34:51.712Z,101331.87
2023-04-10T12:37:20.934Z,101330.06
2023-04-10T12:39:49.288Z,101327.88
2023-04-10T12:42:19.645Z,101320.14
2023-04-10T12:44:55.427Z,101325.86
2023-04-10T12:47:24.679Z,101324.38
2023-04-10T12:50:13.924Z,101318.29
2023-04-10T12:52:45.492Z,101315.02
2023-04-10T12:55:14.991Z,101311.86
2023-04-10T12:57:45.131Z,101300.52
2023-04-10T13:00:15.891Z,101297.77
2023-04-10T13:02:45.150Z,101295.08
2023-04-10T13:05:14.426Z,101293.02
2023-04-10T13:07:43.013Z,101291.63
2023-04-10T13:10:11.293Z,101291.06
2023-04-10T13:12:40.780Z,101288.13
2023-04-10T13:15:09.175Z,101284.04
2023-04-10T13:17:37.359Z,101285.83
2023-04-10T13:20:06.643Z,101282.71
2023-04-10T13:22:34.810Z,101279.60
2023-04-10T13:25:04.933Z,101276.16
2023-04-10T13:27:33.097Z,101272.21
2023-04-10T13:30:01.379Z,101269.64
2023-04-10T13:32:29.714Z,101261.44
2023-04-10T13:34:57.924Z,101266.13
2023-04-10T13:37:26.909Z,101263.04
2023-04-10T13:39:55.194Z,101261.88
2023-04-10T13:42:23.666Z,101259.86
2023-04-10T13:44:51.841Z,101254.48
2023-04-10T13:47:20.010Z,101252.74
2023-04-10T13:49:48.192Z,101247.35
2023-04-10T13:52:16.356Z,101243.04
2023-04-10T13:54:44.631Z,101237.01
2023-04-10T13:57:12.803Z,101230.95
2023-04-10T13:59:41.388Z,101228.96
2023-04-10T14:02:09.986Z,101222.27
2023-04-10T14:04:38.357Z,101223.67
2023-04-10T14:07:06.619Z,101221.48
2023-04-10T14:09:34.891Z,101215.14
2023-04-10T14:12:03.589Z,101208.13
2023-04-10T14:14:31.859Z,101205.73
2023-04-10T14:17:00.056Z,101200.91
2023-04-10T14:19:28.300Z,101197.93
2023-04-10T14:21:56.481Z,101197.62
2023-04-10T14:24:24.640Z,101189.17
2023-04-10T14:26:58.400Z,101184.00
2023-04-10T14:29:37.280Z,101179.79
2023-04-10T14:32:07.684Z,101175.77
2023-04-10T14:34:36.072Z,101180.56
2023-04-10T14:37:04.547Z,101177.13
2023-04-10T14:39:34.046Z,101172.61
2023-04-10T14:42:02.940Z,101168.82
2023-04-10T14:44:31.214Z,101165.48
2023-04-10T14:46:59.703Z,101161.46
2023-04-10T14:49:27.870Z,101156.34
2023-04-10T14:51:56.042Z,101156.13
2023-04-10T14:54:24.623Z,101152.90
2023-04-10T14:56:52.794Z,101152.45
2023-04-10T14:59:21.380Z,101148.30
2023-04-10T15:01:49.601Z,101140.99
2023-04-10T15:04:18.358Z,101134.34
2023-04-10T15:06:46.711Z,101130.42
2023-04-10T15:09:14.986Z,101124.91
2023-04-10T15:11:43.177Z,101124.69
2023-04-10T15:14:12.478Z,101125.02
2023-04-10T15:16:40.981Z,101115.40
2023-04-10T15:19:09.223Z,101108.79
2023-04-10T15:21:37.708Z,101109.65
2023-04-10T15:24:06.068Z,101108.25
2023-04-10T15:26:34.758Z,101110.34
2023-04-10T15:29:03.754Z,101111.59
2023-04-10T15:31:32.020Z,101110.11
2023-04-10T15:34:00.497Z,101106.95
2023-04-10T15:36:28.771Z,101104.37
2023-04-10T15:38:58.380Z,101103.56
2023-04-10T15:41:27.881Z,101098.52
2023-04-10T15:43:56.583Z,101096.46
2023-04-10T15:46:25.882Z,101096.64
2023-04-10T15:48:54.240Z,101093.34
2023-04-10T15:51:22.411Z,101091.20
2023-04-10T15:53:50.789Z,101086.14
2023-04-10T15:56:19.269Z,101084.27
2023-04-10T15:58:47.961Z,101081.98
2023-04-10T16:01:16.299Z,101082.65
2023-04-10T16:03:45.745Z,101074.84
2023-04-10T16:06:14.313Z,101069.86
2023-04-10T16:08:42.488Z,101068.08
2023-04-10T16:11:10.975Z,101068.50
2023-04-10T16:13:42.295Z,101060.83
2023-04-10T16:16:16.134Z,101062.02
2023-04-10T16:18:47.801Z,101057.33
2023-04-10T16:21:16.249Z,101053.91
2023-04-10T16:23:47.803Z,101053.63
2023-04-10T16:26:16.378Z,101051.19
2023-04-10T16:28:45.285Z,101048.60
2023-04-10T16:31:13.989Z,101040.52
2023-04-10T16:33:42.543Z,101041.59
2023-04-10T16:36:14.001Z,101034.51
2023-04-10T16:38:42.577Z,101032.85
2023-04-10T16:41:17.679Z,101029.93
2023-04-10T16:43:46.287Z,101028.44
2023-04-10T16:46:14.981Z,101027.63
2023-04-10T16:48:46.726Z,101024.23
2023-04-10T16:51:18.687Z,101017.91
2023-04-10T16:53:50.444Z,101019.80
2023-04-10T16:56:22.095Z,101019.80
2023-04-10T16:58:54.164Z,101019.58
2023-04-10T17:01:31.694Z,101013.46
2023-04-10T17:04:03.217Z,101014.17
2023-04-10T17:06:39.772Z,101015.65
2023-04-10T17:09:10.503Z,101014.42
2023-04-10T17:11:47.078Z,101006.18
2023-04-10T17:14:23.444Z,101000.45
2023-04-10T17:16:54.829Z,101000.55
2023-04-10T17:19:26.577Z,100998.70
2023-04-10T17:22:00.756Z,100998.48
2023-04-10T17:24:32.210Z,101004.65
2023-04-10T17:27:06.630Z,101003.39
2023-04-10T17:29:43.808Z,101000.98
2023-04-10T17:32:21.321Z,100998.86
2023-04-10T17:34:55.412Z,101000.36
2023-04-10T17:37:29.519Z,100993.39
2023-04-10T17:40:06.974Z,100992.55
2023-04-10T17:42:43.887Z,100991.90
2023-04-10T17:45:30.507Z,100989.78
2023-04-10T17:48:05.085Z,100987.35
2023-04-10T17:50:39.945Z,100988.02
2023-04-10T17:53:16.000Z,100993.67
2023-04-10T17:55:54.669Z,100995.23
2023-04-10T17:58:35.690Z,100995.05
2023-04-10T18:01:17.811Z,100989.34
2023-04-10T18:03:54.765Z,100992.25
2023-04-10T18:06:35.961Z,100991.14
2023-04-10T18:09:22.043Z,100991.48
2023-04-10T18:12:04.864Z,100989.69
2023-04-10T18:14:54.833Z,100991.15
2023-04-10T18:17:33.423Z,100991.37
2023-04-10T18:20:22.726Z,100989.50
2023-04-10T18:23:27.038Z,100989.95
2023-04-10T18:26:07.652Z,100991.93
2023-04-10T18:29:16.634Z,100995.20
2023-04-10T18:32:03.756Z,100993.15
2023-04-10T18:35:03.772Z,100992.81
2023-04-10T18:37:48.121Z,100991.94
2023-04-10T18:40:31.358Z,100985.94
2023-04-10T18:43:42.403Z,100984.50
2023-04-10T18:46:54.144Z,100981.52
2023-04-10T18:49:53.476Z,100982.17
2023-04-10T18:52:40.532Z,100985.87
2023-04-10T18:55:35.534Z,100989.70
2023-04-10T18:58:27.052Z,100989.73
2023-04-10T19:01:20.803Z,100991.29
2023-04-10T19:04:10.303Z,100987.91
2023-04-10T19:07:19.936Z,100985.08
2023-04-10T19:10:14.225Z,100982.98
2023-04-10T19:13:09.160Z,100984.33
2023-04-10T19:16:26.138Z,100987.10
2023-04-10T19:19:26.569Z,100983.42
2023-04-10T19:22:46.246Z,100982.54
2023-04-10T19:25:44.423Z,100979.55
2023-04-10T19:28:58.667Z,100978.16
2023-04-10T19:32:07.701Z,100976.05
2023-04-10T19:35:21.790Z,100973.90
2023-04-10T19:38:21.869Z,100977.45
2023-04-10T19:41:44.837Z,100973.92
2023-04-10T19:45:16.196Z,100968.45
2023-04-10T19:48:23.165Z,100961.58
2023-04-10T19:51:44.064Z,100962.73
2023-04-10T19:54:42.857Z,100962.47
2023-04-10T19:57:43.313Z,100956.47
2023-04-10T20:00:44.530Z,100952.61
2023-04-10T20:04:06.956Z,100949.11
2023-04-10T20:07:05.049Z,100945.21
2023-04-10T20:10:13.161Z,100941.25
2023-04-10T20:13:15.631Z,100938.49
2023-04-10T20:16:43.706Z,100933.66
2023-04-10T20:20:00.320Z,100926.58
2023-04-10T20:23:23.411Z,100920.89
2023-04-10T20:26:41.927Z,100916.95
2023-04-10T20:30:02.834Z,100916.86
2023-04-10T20:33:27.016Z,100910.25
2023-04-10T20:36:58.267Z,100908.55
2023-04-10T20:40:20.714Z,100903.34
2023-04-10T20:43:45.360Z,100905.42
2023-04-10T20:46:57.404Z,100900.39
2023-04-10T20:50:23.946Z,100898.60
2023-04-10T20:53:54.312Z,100892.92
2023-04-10T20:57:17.348Z,100879.32
2023-04-10T21:00:34.045Z,100873.16
2023-04-10T21:04:05.954Z,100866.65
2023-04-10T21:07:18.426Z,100864.45
2023-04-10T21:10:58.940Z,100862.91
2023-04-10T21:14:20.108Z,100856.02
2023-04-10T21:17:38.073Z,100850.00
2023-04-10T21:20:54.862Z,100845.77
2023-04-10T21:24:03.796Z,100846.33
2023-04-10T21:27:20.393Z,100843.56
2023-04-10T21:30:41.608Z,100835.45
2023-04-10T21:34:02.214Z,100827.42
2023-04-10T21:37:12.682Z,100821.31
2023-04-10T21:40:32.768Z,100819.70
2023-04-10T21:43:44.763Z,100809.05
2023-04-10T21:47:24.249Z,100801.61
2023-04-10T21:50:29.452Z,100799.33
2023-04-10T21:53:43.797Z,100799.10
2023-04-10T21:57:00.198Z,100792.02
2023-04-10T22:00:00.184Z,100787.70
2023-04-10T22:03:22.126Z,100780.33
2023-04-10T22:06:27.701Z,100775.80
2023-04-10T22:09:27.923Z,100770.23
2023-04-10T22:12:48.577Z,100764.23
2023-04-10T22:16:08.110Z,100764.61
2023-04-10T22:19:36.246Z,100761.95
2023-04-10T22:22:40.192Z,100754.63
2023-04-10T22:25:32.462Z,100747.71
2023-04-10T22:28:45.760Z,100746.16
2023-04-10T22:31:58.476Z,100741.84
2023-04-10T22:35:07.415Z,100739.94
2023-04-10T22:38:07.855Z,100739.95
2023-04-10T22:41:06.820Z,100735.46
2023-04-10T22:44:07.572Z,100734.60
2023-04-10T22:47:16.387Z,100735.46
2023-04-10T22:50:24.494Z,100731.06
2023-04-10T22:53:23.599Z,100723.17
2023-04-10T22:56:25.038Z,100718.82
2023-04-10T22:59:32.223Z,100715.06
2023-04-10T23:02:31.524Z,100703.64
2023-04-10T23:05:34.617Z,100694.89
2023-04-10T23:08:39.559Z,100683.96
2023-04-10T23:11:47.455Z,100677.83
2023-04-10T23:14:57.095Z,100675.38
2023-04-10T23:18:08.293Z,100667.69
2023-04-10T23:21:11.881Z,100659.96
2023-04-10T23:24:33.928Z,100660.38
2023-04-10T23:27:59.641Z,100655.07
2023-04-10T23:31:01.636Z,100650.46
2023-04-10T23:34:10.120Z,100644.59
2023-04-10T23:37:34.820Z,100636.27
2023-04-10T23:40:39.661Z,100624.63
2023-04-10T23:43:44.786Z,100622.77
2023-04-10T23:46:52.810Z,100620.06
2023-04-10T23:50:02.950Z,100620.39
2023-04-10T23:53:10.482Z,100609.36
2023-04-10T23:56:24.488Z,100600.95
2023-04-10T23:59:31.982Z,100594.36
